sensor_id;sensor_type;location;lat;lon;timestamp;P1;durP1;ratioP1;P2;durP2;ratioP2
74793;SDS011;63320;50.768;6.724;2023-02-26T00:01:10;7.45;;;1.98;;
74793;SDS011;63320;50.768;6.724;2023-02-26T00:03:36;8.13;;;2.45;;
74793;SDS011;63320;50.768;6.724;2023-02-26T00:06:03;11.82;;;2.47;;
74793;SDS011;63320;50.768;6.724;2023-02-26T00:08:29;8.60;;;2.08;;
74793;SDS011;63320;50.768;6.724;2023-02-26T00:10:54;8.15;;;1.83;;
74793;SDS011;63320;50.768;6.724;2023-02-26T00:13:20;5.63;;;2.03;;
74793;SDS011;63320;50.768;6.724;2023-02-26T00:15:46;6.70;;;2.33;;
74793;SDS011;63320;50.768;6.724;2023-02-26T00:18:12;9.65;;;2.00;;
74793;SDS011;63320;50.768;6.724;2023-02-26T00:20:40;8.85;;;1.70;;
74793;SDS011;63320;50.768;6.724;2023-02-26T00:23:08;8.50;;;2.33;;
74793;SDS011;63320;50.768;6.724;2023-02-26T00:25:35;10.75;;;2.15;;
74793;SDS011;63320;50.768;6.724;2023-02-26T00:28:01;8.88;;;1.83;;
74793;SDS011;63320;50.768;6.724;2023-02-26T00:30:27;8.73;;;2.63;;
74793;SDS011;63320;50.768;6.724;2023-02-26T00:32:53;9.00;;;1.95;;
74793;SDS011;63320;50.768;6.724;2023-02-26T00:35:19;8.13;;;1.50;;
74793;SDS011;63320;50.768;6.724;2023-02-26T00:37:51;6.90;;;2.00;;
74793;SDS011;63320;50.768;6.724;2023-02-26T00:40:25;10.50;;;1.88;;
74793;SDS011;63320;50.768;6.724;2023-02-26T00:42:58;8.98;;;1.42;;
74793;SDS011;63320;50.768;6.724;2023-02-26T00:45:24;7.57;;;1.70;;
74793;SDS011;63320;50.768;6.724;2023-02-26T00:47:51;5.95;;;2.00;;
74793;SDS011;63320;50.768;6.724;2023-02-26T00:50:24;7.40;;;1.88;;
74793;SDS011;63320;50.768;6.724;2023-02-26T00:52:52;7.28;;;2.13;;
74793;SDS011;63320;50.768;6.724;2023-02-26T00:55:29;7.13;;;2.13;;
74793;SDS011;63320;50.768;6.724;2023-02-26T00:57:55;8.02;;;2.47;;
74793;SDS011;63320;50.768;6.724;2023-02-26T01:00:20;8.90;;;2.30;;
74793;SDS011;63320;50.768;6.724;2023-02-26T01:02:46;8.82;;;1.90;;
74793;SDS011;63320;50.768;6.724;2023-02-26T01:05:12;5.88;;;1.67;;
74793;SDS011;63320;50.768;6.724;2023-02-26T01:07:40;9.48;;;1.90;;
74793;SDS011;63320;50.768;6.724;2023-02-26T01:10:09;9.85;;;2.67;;
74793;SDS011;63320;50.768;6.724;2023-02-26T01:12:37;6.68;;;1.80;;
74793;SDS011;63320;50.768;6.724;2023-02-26T01:15:03;7.88;;;1.48;;
74793;SDS011;63320;50.768;6.724;2023-02-26T01:17:31;8.68;;;1.60;;
74793;SDS011;63320;50.768;6.724;2023-02-26T01:20:00;6.40;;;1.85;;
74793;SDS011;63320;50.768;6.724;2023-02-26T01:22:29;7.72;;;1.67;;
74793;SDS011;63320;50.768;6.724;2023-02-26T01:25:01;7.10;;;1.95;;
74793;SDS011;63320;50.768;6.724;2023-02-26T01:27:28;5.43;;;1.65;;
74793;SDS011;63320;50.768;6.724;2023-02-26T01:29:55;9.07;;;1.90;;
74793;SDS011;63320;50.768;6.724;2023-02-26T01:32:22;5.85;;;1.65;;
74793;SDS011;63320;50.768;6.724;2023-02-26T01:34:53;8.68;;;1.50;;
74793;SDS011;63320;50.768;6.724;2023-02-26T01:37:25;8.27;;;1.88;;
74793;SDS011;63320;50.768;6.724;2023-02-26T01:40:00;6.57;;;1.67;;
74793;SDS011;63320;50.768;6.724;2023-02-26T01:42:42;7.65;;;2.47;;
74793;SDS011;63320;50.768;6.724;2023-02-26T01:45:12;7.82;;;2.10;;
74793;SDS011;63320;50.768;6.724;2023-02-26T01:47:42;7.65;;;1.75;;
74793;SDS011;63320;50.768;6.724;2023-02-26T01:50:13;7.22;;;1.67;;
74793;SDS011;63320;50.768;6.724;2023-02-26T01:55:40;4.68;;;1.65;;
74793;SDS011;63320;50.768;6.724;2023-02-26T01:58:08;8.23;;;1.63;;
74793;SDS011;63320;50.768;6.724;2023-02-26T02:00:35;9.05;;;1.80;;
74793;SDS011;63320;50.768;6.724;2023-02-26T02:03:00;8.90;;;2.00;;
74793;SDS011;63320;50.768;6.724;2023-02-26T02:05:27;8.48;;;1.73;;
74793;SDS011;63320;50.768;6.724;2023-02-26T02:07:56;6.22;;;1.60;;
74793;SDS011;63320;50.768;6.724;2023-02-26T02:10:22;4.22;;;1.30;;
74793;SDS011;63320;50.768;6.724;2023-02-26T02:12:50;5.03;;;1.20;;
74793;SDS011;63320;50.768;6.724;2023-02-26T02:15:24;7.57;;;1.48;;
74793;SDS011;63320;50.768;6.724;2023-02-26T02:17:57;7.53;;;1.30;;
74793;SDS011;63320;50.768;6.724;2023-02-26T02:20:34;4.18;;;1.35;;
74793;SDS011;63320;50.768;6.724;2023-02-26T02:23:16;5.25;;;1.38;;
74793;SDS011;63320;50.768;6.724;2023-02-26T02:25:53;6.55;;;1.45;;
74793;SDS011;63320;50.768;6.724;2023-02-26T02:28:40;4.80;;;1.40;;
74793;SDS011;63320;50.768;6.724;2023-02-26T02:31:17;7.10;;;1.42;;
74793;SDS011;63320;50.768;6.724;2023-02-26T02:33:47;7.28;;;1.50;;
74793;SDS011;63320;50.768;6.724;2023-02-26T02:36:17;3.83;;;1.30;;
74793;SDS011;63320;50.768;6.724;2023-02-26T02:41:15;5.82;;;1.50;;
74793;SDS011;63320;50.768;6.724;2023-02-26T02:43:44;6.22;;;1.30;;
74793;SDS011;63320;50.768;6.724;2023-02-26T02:46:14;7.03;;;1.50;;
74793;SDS011;63320;50.768;6.724;2023-02-26T02:48:44;7.30;;;1.50;;
74793;SDS011;63320;50.768;6.724;2023-02-26T02:51:13;6.53;;;1.70;;
74793;SDS011;63320;50.768;6.724;2023-02-26T02:53:44;7.63;;;1.70;;
74793;SDS011;63320;50.768;6.724;2023-02-26T02:56:15;5.88;;;1.67;;
74793;SDS011;63320;50.768;6.724;2023-02-26T02:58:45;6.75;;;1.60;;
74793;SDS011;63320;50.768;6.724;2023-02-26T03:01:15;6.30;;;1.50;;
74793;SDS011;63320;50.768;6.724;2023-02-26T03:03:49;5.60;;;1.42;;
74793;SDS011;63320;50.768;6.724;2023-02-26T03:06:18;8.02;;;1.80;;
74793;SDS011;63320;50.768;6.724;2023-02-26T03:08:44;5.85;;;1.33;;
74793;SDS011;63320;50.768;6.724;2023-02-26T03:11:12;9.23;;;1.88;;
74793;SDS011;63320;50.768;6.724;2023-02-26T03:13:37;8.38;;;1.48;;
74793;SDS011;63320;50.768;6.724;2023-02-26T03:16:08;5.60;;;1.52;;
74793;SDS011;63320;50.768;6.724;2023-02-26T03:18:49;5.47;;;1.70;;
74793;SDS011;63320;50.768;6.724;2023-02-26T03:21:19;7.15;;;1.63;;
74793;SDS011;63320;50.768;6.724;2023-02-26T03:23:50;6.15;;;1.60;;
74793;SDS011;63320;50.768;6.724;2023-02-26T03:26:23;4.78;;;1.48;;
74793;SDS011;63320;50.768;6.724;2023-02-26T03:28:56;4.35;;;1.33;;
74793;SDS011;63320;50.768;6.724;2023-02-26T03:31:28;8.95;;;1.58;;
74793;SDS011;63320;50.768;6.724;2023-02-26T03:33:58;9.02;;;1.85;;
74793;SDS011;63320;50.768;6.724;2023-02-26T03:36:27;7.30;;;1.38;;
74793;SDS011;63320;50.768;6.724;2023-02-26T03:38:57;6.28;;;1.23;;
74793;SDS011;63320;50.768;6.724;2023-02-26T03:41:29;10.85;;;1.48;;
74793;SDS011;63320;50.768;6.724;2023-02-26T03:43:59;6.22;;;1.13;;
74793;SDS011;63320;50.768;6.724;2023-02-26T03:46:28;8.07;;;1.50;;
74793;SDS011;63320;50.768;6.724;2023-02-26T03:48:58;5.63;;;1.10;;
74793;SDS011;63320;50.768;6.724;2023-02-26T03:51:28;3.95;;;1.13;;
74793;SDS011;63320;50.768;6.724;2023-02-26T03:53:55;4.78;;;1.13;;
74793;SDS011;63320;50.768;6.724;2023-02-26T03:56:27;6.85;;;1.30;;
74793;SDS011;63320;50.768;6.724;2023-02-26T03:58:55;5.97;;;1.30;;
74793;SDS011;63320;50.768;6.724;2023-02-26T04:01:22;7.43;;;1.48;;
74793;SDS011;63320;50.768;6.724;2023-02-26T04:03:52;4.65;;;1.50;;
74793;SDS011;63320;50.768;6.724;2023-02-26T04:08:48;6.78;;;2.00;;
74793;SDS011;63320;50.768;6.724;2023-02-26T04:11:15;7.15;;;1.83;;
74793;SDS011;63320;50.768;6.724;2023-02-26T04:13:42;7.05;;;1.98;;
74793;SDS011;63320;50.768;6.724;2023-02-26T04:16:08;5.57;;;1.40;;
74793;SDS011;63320;50.768;6.724;2023-02-26T04:18:34;5.82;;;1.50;;
74793;SDS011;63320;50.768;6.724;2023-02-26T04:20:59;7.22;;;1.20;;
74793;SDS011;63320;50.768;6.724;2023-02-26T04:23:26;7.95;;;2.28;;
74793;SDS011;63320;50.768;6.724;2023-02-26T04:25:51;9.10;;;1.50;;
74793;SDS011;63320;50.768;6.724;2023-02-26T04:28:17;5.35;;;1.17;;
74793;SDS011;63320;50.768;6.724;2023-02-26T04:30:42;4.28;;;1.25;;
74793;SDS011;63320;50.768;6.724;2023-02-26T04:33:08;4.72;;;1.55;;
74793;SDS011;63320;50.768;6.724;2023-02-26T04:35:33;4.38;;;1.10;;
74793;SDS011;63320;50.768;6.724;2023-02-26T04:37:58;5.25;;;1.27;;
74793;SDS011;63320;50.768;6.724;2023-02-26T04:40:25;6.60;;;1.30;;
74793;SDS011;63320;50.768;6.724;2023-02-26T04:42:50;7.30;;;1.42;;
74793;SDS011;63320;50.768;6.724;2023-02-26T04:45:16;6.95;;;1.30;;
74793;SDS011;63320;50.768;6.724;2023-02-26T04:47:41;6.30;;;1.42;;
74793;SDS011;63320;50.768;6.724;2023-02-26T04:50:07;7.50;;;1.83;;
74793;SDS011;63320;50.768;6.724;2023-02-26T04:52:33;7.78;;;1.20;;
74793;SDS011;63320;50.768;6.724;2023-02-26T04:54:59;6.80;;;1.55;;
74793;SDS011;63320;50.768;6.724;2023-02-26T04:57:25;5.95;;;1.05;;
74793;SDS011;63320;50.768;6.724;2023-02-26T04:59:51;5.50;;;1.10;;
74793;SDS011;63320;50.768;6.724;2023-02-26T05:02:16;3.83;;;1.00;;
74793;SDS011;63320;50.768;6.724;2023-02-26T05:04:41;3.67;;;0.90;;
74793;SDS011;63320;50.768;6.724;2023-02-26T05:07:07;9.23;;;1.45;;
74793;SDS011;63320;50.768;6.724;2023-02-26T05:09:32;3.67;;;1.00;;
74793;SDS011;63320;50.768;6.724;2023-02-26T05:11:57;3.88;;;1.00;;
74793;SDS011;63320;50.768;6.724;2023-02-26T05:14:24;4.90;;;1.08;;
74793;SDS011;63320;50.768;6.724;2023-02-26T05:16:50;5.80;;;1.17;;
74793;SDS011;63320;50.768;6.724;2023-02-26T05:19:15;5.00;;;0.90;;
74793;SDS011;63320;50.768;6.724;2023-02-26T05:21:40;2.95;;;1.13;;
74793;SDS011;63320;50.768;6.724;2023-02-26T05:24:06;3.08;;;1.00;;
74793;SDS011;63320;50.768;6.724;2023-02-26T05:26:31;4.90;;;1.02;;
74793;SDS011;63320;50.768;6.724;2023-02-26T05:28:57;5.30;;;1.10;;
74793;SDS011;63320;50.768;6.724;2023-02-26T05:31:24;5.55;;;1.20;;
74793;SDS011;63320;50.768;6.724;2023-02-26T05:33:49;6.53;;;1.77;;
74793;SDS011;63320;50.768;6.724;2023-02-26T05:36:14;5.05;;;1.30;;
74793;SDS011;63320;50.768;6.724;2023-02-26T05:38:40;5.43;;;1.40;;
74793;SDS011;63320;50.768;6.724;2023-02-26T05:41:05;4.95;;;1.42;;
74793;SDS011;63320;50.768;6.724;2023-02-26T05:43:30;6.90;;;1.10;;
74793;SDS011;63320;50.768;6.724;2023-02-26T05:45:56;5.60;;;0.90;;
74793;SDS011;63320;50.768;6.724;2023-02-26T05:48:22;5.07;;;1.00;;
74793;SDS011;63320;50.768;6.724;2023-02-26T05:50:48;4.47;;;1.23;;
74793;SDS011;63320;50.768;6.724;2023-02-26T05:53:14;5.95;;;1.30;;
74793;SDS011;63320;50.768;6.724;2023-02-26T05:55:39;4.38;;;0.85;;
74793;SDS011;63320;50.768;6.724;2023-02-26T05:58:05;7.25;;;0.93;;
74793;SDS011;63320;50.768;6.724;2023-02-26T06:00:30;4.68;;;0.90;;
74793;SDS011;63320;50.768;6.724;2023-02-26T06:02:58;3.50;;;0.70;;
74793;SDS011;63320;50.768;6.724;2023-02-26T06:05:25;7.55;;;1.58;;
74793;SDS011;63320;50.768;6.724;2023-02-26T06:07:50;4.65;;;1.27;;
74793;SDS011;63320;50.768;6.724;2023-02-26T06:10:16;6.18;;;1.08;;
74793;SDS011;63320;50.768;6.724;2023-02-26T06:12:41;3.05;;;1.02;;
74793;SDS011;63320;50.768;6.724;2023-02-26T06:15:07;10.02;;;1.20;;
74793;SDS011;63320;50.768;6.724;2023-02-26T06:17:33;6.43;;;0.95;;
74793;SDS011;63320;50.768;6.724;2023-02-26T06:19:59;4.15;;;1.38;;
74793;SDS011;63320;50.768;6.724;2023-02-26T06:22:25;6.30;;;1.10;;
74793;SDS011;63320;50.768;6.724;2023-02-26T06:24:51;4.40;;;1.10;;
74793;SDS011;63320;50.768;6.724;2023-02-26T06:27:16;4.13;;;1.00;;
74793;SDS011;63320;50.768;6.724;2023-02-26T06:29:41;4.72;;;1.13;;
74793;SDS011;63320;50.768;6.724;2023-02-26T06:32:07;5.68;;;1.50;;
74793;SDS011;63320;50.768;6.724;2023-02-26T06:34:32;3.40;;;1.00;;
74793;SDS011;63320;50.768;6.724;2023-02-26T06:36:58;3.00;;;1.20;;
74793;SDS011;63320;50.768;6.724;2023-02-26T06:39:24;5.43;;;1.00;;
74793;SDS011;63320;50.768;6.724;2023-02-26T06:41:50;6.28;;;1.35;;
74793;SDS011;63320;50.768;6.724;2023-02-26T06:44:16;3.58;;;1.00;;
74793;SDS011;63320;50.768;6.724;2023-02-26T06:46:41;4.60;;;1.42;;
74793;SDS011;63320;50.768;6.724;2023-02-26T06:49:06;5.65;;;1.02;;
74793;SDS011;63320;50.768;6.724;2023-02-26T06:51:32;4.93;;;1.20;;
74793;SDS011;63320;50.768;6.724;2023-02-26T06:53:57;8.63;;;1.30;;
74793;SDS011;63320;50.768;6.724;2023-02-26T06:56:24;6.10;;;1.25;;
74793;SDS011;63320;50.768;6.724;2023-02-26T06:58:50;5.55;;;1.40;;
74793;SDS011;63320;50.768;6.724;2023-02-26T07:01:15;6.78;;;1.40;;
74793;SDS011;63320;50.768;6.724;2023-02-26T07:03:41;5.47;;;1.50;;
74793;SDS011;63320;50.768;6.724;2023-02-26T07:06:06;4.32;;;1.50;;
74793;SDS011;63320;50.768;6.724;2023-02-26T07:08:34;6.63;;;1.42;;
74793;SDS011;63320;50.768;6.724;2023-02-26T07:11:00;6.43;;;1.10;;
74793;SDS011;63320;50.768;6.724;2023-02-26T07:13:27;4.60;;;1.10;;
74793;SDS011;63320;50.768;6.724;2023-02-26T07:15:53;10.52;;;1.25;;
74793;SDS011;63320;50.768;6.724;2023-02-26T07:18:18;5.97;;;1.08;;
74793;SDS011;63320;50.768;6.724;2023-02-26T07:20:43;5.63;;;1.55;;
74793;SDS011;63320;50.768;6.724;2023-02-26T07:23:09;6.45;;;1.20;;
74793;SDS011;63320;50.768;6.724;2023-02-26T07:25:34;4.15;;;1.02;;
74793;SDS011;63320;50.768;6.724;2023-02-26T07:27:59;5.25;;;1.50;;
74793;SDS011;63320;50.768;6.724;2023-02-26T07:30:26;6.40;;;1.60;;
74793;SDS011;63320;50.768;6.724;2023-02-26T07:32:51;6.15;;;1.67;;
74793;SDS011;63320;50.768;6.724;2023-02-26T07:35:17;5.03;;;1.50;;
74793;SDS011;63320;50.768;6.724;2023-02-26T07:37:42;7.53;;;1.63;;
74793;SDS011;63320;50.768;6.724;2023-02-26T07:40:08;3.90;;;1.67;;
74793;SDS011;63320;50.768;6.724;2023-02-26T07:42:34;5.13;;;1.58;;
74793;SDS011;63320;50.768;6.724;2023-02-26T07:45:00;5.43;;;1.63;;
74793;SDS011;63320;50.768;6.724;2023-02-26T07:47:26;6.75;;;1.60;;
74793;SDS011;63320;50.768;6.724;2023-02-26T07:49:52;8.38;;;2.10;;
74793;SDS011;63320;50.768;6.724;2023-02-26T07:52:17;7.18;;;1.90;;
74793;SDS011;63320;50.768;6.724;2023-02-26T07:54:43;4.32;;;2.00;;
74793;SDS011;63320;50.768;6.724;2023-02-26T07:57:08;8.55;;;1.98;;
74793;SDS011;63320;50.768;6.724;2023-02-26T07:59:33;9.07;;;2.40;;
74793;SDS011;63320;50.768;6.724;2023-02-26T08:01:59;6.32;;;2.40;;
74793;SDS011;63320;50.768;6.724;2023-02-26T08:04:25;5.28;;;1.85;;
74793;SDS011;63320;50.768;6.724;2023-02-26T08:06:51;5.05;;;1.73;;
74793;SDS011;63320;50.768;6.724;2023-02-26T08:09:16;5.78;;;2.05;;
74793;SDS011;63320;50.768;6.724;2023-02-26T08:11:41;11.95;;;4.10;;
74793;SDS011;63320;50.768;6.724;2023-02-26T08:14:07;19.52;;;7.57;;
74793;SDS011;63320;50.768;6.724;2023-02-26T08:16:33;16.52;;;5.95;;
74793;SDS011;63320;50.768;6.724;2023-02-26T08:18:58;10.75;;;3.80;;
74793;SDS011;63320;50.768;6.724;2023-02-26T08:21:25;9.20;;;4.00;;
74793;SDS011;63320;50.768;6.724;2023-02-26T08:23:50;11.02;;;4.45;;
74793;SDS011;63320;50.768;6.724;2023-02-26T08:26:16;10.57;;;4.85;;
74793;SDS011;63320;50.768;6.724;2023-02-26T08:28:41;8.63;;;3.42;;
74793;SDS011;63320;50.768;6.724;2023-02-26T08:31:06;6.90;;;2.60;;
74793;SDS011;63320;50.768;6.724;2023-02-26T08:33:32;8.32;;;2.60;;
74793;SDS011;63320;50.768;6.724;2023-02-26T08:35:58;7.38;;;2.53;;
74793;SDS011;63320;50.768;6.724;2023-02-26T08:38:25;8.02;;;2.47;;
74793;SDS011;63320;50.768;6.724;2023-02-26T08:40:50;7.00;;;2.20;;
74793;SDS011;63320;50.768;6.724;2023-02-26T08:43:16;7.78;;;2.25;;
74793;SDS011;63320;50.768;6.724;2023-02-26T08:45:41;6.05;;;2.95;;
74793;SDS011;63320;50.768;6.724;2023-02-26T08:48:06;7.20;;;2.65;;
74793;SDS011;63320;50.768;6.724;2023-02-26T08:50:32;6.95;;;2.60;;
74793;SDS011;63320;50.768;6.724;2023-02-26T08:52:57;8.85;;;3.03;;
74793;SDS011;63320;50.768;6.724;2023-02-26T08:55:24;11.98;;;3.80;;
74793;SDS011;63320;50.768;6.724;2023-02-26T08:57:49;8.85;;;3.58;;
74793;SDS011;63320;50.768;6.724;2023-02-26T09:00:15;9.57;;;3.10;;
74793;SDS011;63320;50.768;6.724;2023-02-26T09:02:41;12.23;;;3.70;;
74793;SDS011;63320;50.768;6.724;2023-02-26T09:05:06;8.95;;;2.92;;
74793;SDS011;63320;50.768;6.724;2023-02-26T09:07:32;5.35;;;2.35;;
74793;SDS011;63320;50.768;6.724;2023-02-26T09:09:58;8.93;;;3.40;;
74793;SDS011;63320;50.768;6.724;2023-02-26T09:12:24;7.95;;;3.28;;
74793;SDS011;63320;50.768;6.724;2023-02-26T09:14:50;9.43;;;3.50;;
74793;SDS011;63320;50.768;6.724;2023-02-26T09:17:15;8.20;;;2.95;;
74793;SDS011;63320;50.768;6.724;2023-02-26T09:19:41;7.80;;;2.03;;
74793;SDS011;63320;50.768;6.724;2023-02-26T09:22:06;7.63;;;2.40;;
74793;SDS011;63320;50.768;6.724;2023-02-26T09:24:31;7.70;;;3.05;;
74793;SDS011;63320;50.768;6.724;2023-02-26T09:26:57;7.82;;;2.53;;
74793;SDS011;63320;50.768;6.724;2023-02-26T09:29:23;7.35;;;2.50;;
74793;SDS011;63320;50.768;6.724;2023-02-26T09:31:49;5.88;;;2.30;;
74793;SDS011;63320;50.768;6.724;2023-02-26T09:34:14;6.03;;;2.65;;
74793;SDS011;63320;50.768;6.724;2023-02-26T09:36:39;9.10;;;2.30;;
74793;SDS011;63320;50.768;6.724;2023-02-26T09:39:05;6.60;;;2.33;;
74793;SDS011;63320;50.768;6.724;2023-02-26T09:41:31;5.20;;;2.08;;
74793;SDS011;63320;50.768;6.724;2023-02-26T09:44:10;8.25;;;1.80;;
74793;SDS011;63320;50.768;6.724;2023-02-26T09:46:43;6.35;;;2.75;;
74793;SDS011;63320;50.768;6.724;2023-02-26T09:49:17;6.35;;;2.17;;
74793;SDS011;63320;50.768;6.724;2023-02-26T09:51:48;5.30;;;2.03;;
74793;SDS011;63320;50.768;6.724;2023-02-26T09:54:17;7.45;;;2.20;;
74793;SDS011;63320;50.768;6.724;2023-02-26T09:56:46;5.03;;;1.60;;
74793;SDS011;63320;50.768;6.724;2023-02-26T09:59:12;6.97;;;2.15;;
74793;SDS011;63320;50.768;6.724;2023-02-26T10:01:38;7.07;;;2.38;;
74793;SDS011;63320;50.768;6.724;2023-02-26T10:04:12;7.65;;;2.00;;
74793;SDS011;63320;50.768;6.724;2023-02-26T10:06:48;5.35;;;1.70;;
74793;SDS011;63320;50.768;6.724;2023-02-26T10:09:29;6.43;;;1.73;;
74793;SDS011;63320;50.768;6.724;2023-02-26T10:12:04;4.97;;;1.50;;
74793;SDS011;63320;50.768;6.724;2023-02-26T10:14:34;8.77;;;3.10;;
74793;SDS011;63320;50.768;6.724;2023-02-26T10:17:04;7.05;;;2.35;;
74793;SDS011;63320;50.768;6.724;2023-02-26T10:19:36;8.20;;;3.15;;
74793;SDS011;63320;50.768;6.724;2023-02-26T10:22:10;6.90;;;2.00;;
74793;SDS011;63320;50.768;6.724;2023-02-26T10:24:41;10.27;;;3.45;;
74793;SDS011;63320;50.768;6.724;2023-02-26T10:27:11;9.68;;;3.63;;
74793;SDS011;63320;50.768;6.724;2023-02-26T10:29:39;4.85;;;1.70;;
74793;SDS011;63320;50.768;6.724;2023-02-26T10:32:16;4.97;;;1.40;;
74793;SDS011;63320;50.768;6.724;2023-02-26T10:34:50;4.03;;;1.70;;
74793;SDS011;63320;50.768;6.724;2023-02-26T10:37:19;5.10;;;1.23;;
74793;SDS011;63320;50.768;6.724;2023-02-26T10:39:49;6.03;;;1.23;;
74793;SDS011;63320;50.768;6.724;2023-02-26T10:42:20;5.25;;;1.63;;
74793;SDS011;63320;50.768;6.724;2023-02-26T10:44:49;6.72;;;2.00;;
74793;SDS011;63320;50.768;6.724;2023-02-26T10:47:30;3.05;;;0.90;;
74793;SDS011;63320;50.768;6.724;2023-02-26T10:50:03;4.80;;;1.40;;
74793;SDS011;63320;50.768;6.724;2023-02-26T10:52:31;3.30;;;1.00;;
74793;SDS011;63320;50.768;6.724;2023-02-26T10:55:02;6.10;;;1.40;;
74793;SDS011;63320;50.768;6.724;2023-02-26T10:57:46;5.00;;;1.10;;
74793;SDS011;63320;50.768;6.724;2023-02-26T11:00:19;3.38;;;1.00;;
74793;SDS011;63320;50.768;6.724;2023-02-26T11:02:47;2.53;;;0.80;;
74793;SDS011;63320;50.768;6.724;2023-02-26T11:05:15;4.07;;;1.30;;
74793;SDS011;63320;50.768;6.724;2023-02-26T11:07:42;4.53;;;1.13;;
74793;SDS011;63320;50.768;6.724;2023-02-26T11:10:15;3.88;;;1.10;;
74793;SDS011;63320;50.768;6.724;2023-02-26T11:12:42;2.92;;;0.70;;
74793;SDS011;63320;50.768;6.724;2023-02-26T11:15:11;3.28;;;0.90;;
74793;SDS011;63320;50.768;6.724;2023-02-26T11:17:37;3.33;;;0.90;;
74793;SDS011;63320;50.768;6.724;2023-02-26T11:20:12;4.07;;;1.13;;
74793;SDS011;63320;50.768;6.724;2023-02-26T11:22:43;4.80;;;1.00;;
74793;SDS011;63320;50.768;6.724;2023-02-26T11:25:12;4.07;;;0.63;;
74793;SDS011;63320;50.768;6.724;2023-02-26T11:27:38;2.22;;;0.70;;
74793;SDS011;63320;50.768;6.724;2023-02-26T11:30:06;3.97;;;1.05;;
74793;SDS011;63320;50.768;6.724;2023-02-26T11:32:39;2.15;;;0.70;;
74793;SDS011;63320;50.768;6.724;2023-02-26T11:35:07;1.83;;;0.73;;
74793;SDS011;63320;50.768;6.724;2023-02-26T11:37:34;3.20;;;0.57;;
74793;SDS011;63320;50.768;6.724;2023-02-26T11:40:03;2.92;;;0.70;;
74793;SDS011;63320;50.768;6.724;2023-02-26T11:42:34;2.65;;;0.95;;
74793;SDS011;63320;50.768;6.724;2023-02-26T11:45:01;3.70;;;1.10;;
74793;SDS011;63320;50.768;6.724;2023-02-26T11:47:29;4.88;;;1.58;;
74793;SDS011;63320;50.768;6.724;2023-02-26T11:49:59;4.00;;;1.20;;
74793;SDS011;63320;50.768;6.724;2023-02-26T11:52:28;6.78;;;1.75;;
74793;SDS011;63320;50.768;6.724;2023-02-26T11:54:58;6.00;;;1.20;;
74793;SDS011;63320;50.768;6.724;2023-02-26T11:57:25;6.38;;;1.70;;
74793;SDS011;63320;50.768;6.724;2023-02-26T11:59:53;3.67;;;0.95;;
74793;SDS011;63320;50.768;6.724;2023-02-26T12:02:20;5.60;;;1.10;;
74793;SDS011;63320;50.768;6.724;2023-02-26T12:04:48;4.22;;;1.02;;
74793;SDS011;63320;50.768;6.724;2023-02-26T12:07:15;5.03;;;1.20;;
74793;SDS011;63320;50.768;6.724;2023-02-26T12:09:42;5.68;;;1.40;;
74793;SDS011;63320;50.768;6.724;2023-02-26T12:12:12;4.75;;;1.15;;
74793;SDS011;63320;50.768;6.724;2023-02-26T12:14:52;4.78;;;1.02;;
74793;SDS011;63320;50.768;6.724;2023-02-26T12:17:29;4.57;;;1.05;;
74793;SDS011;63320;50.768;6.724;2023-02-26T12:20:06;4.88;;;2.20;;
74793;SDS011;63320;50.768;6.724;2023-02-26T12:22:47;7.80;;;2.95;;
74793;SDS011;63320;50.768;6.724;2023-02-26T12:25:31;12.35;;;5.82;;
74793;SDS011;63320;50.768;6.724;2023-02-26T12:28:19;9.45;;;4.00;;
74793;SDS011;63320;50.768;6.724;2023-02-26T12:31:06;6.65;;;1.65;;
74793;SDS011;63320;50.768;6.724;2023-02-26T12:33:58;3.70;;;1.23;;
74793;SDS011;63320;50.768;6.724;2023-02-26T12:36:32;2.65;;;0.70;;
74793;SDS011;63320;50.768;6.724;2023-02-26T12:39:09;6.55;;;1.38;;
74793;SDS011;63320;50.768;6.724;2023-02-26T12:42:01;2.83;;;1.02;;
74793;SDS011;63320;50.768;6.724;2023-02-26T12:44:56;5.45;;;1.20;;
74793;SDS011;63320;50.768;6.724;2023-02-26T12:47:44;7.35;;;1.08;;
74793;SDS011;63320;50.768;6.724;2023-02-26T12:50:27;3.90;;;1.10;;
74793;SDS011;63320;50.768;6.724;2023-02-26T12:55:38;12.30;;;2.47;;
74793;SDS011;63320;50.768;6.724;2023-02-26T12:58:31;13.15;;;3.42;;
74793;SDS011;63320;50.768;6.724;2023-02-26T13:01:07;5.75;;;1.50;;
74793;SDS011;63320;50.768;6.724;2023-02-26T13:09:50;6.32;;;1.52;;
74793;SDS011;63320;50.768;6.724;2023-02-26T13:12:35;4.57;;;1.00;;
74793;SDS011;63320;50.768;6.724;2023-02-26T13:15:20;4.82;;;1.10;;
74793;SDS011;63320;50.768;6.724;2023-02-26T13:18:07;3.33;;;0.73;;
74793;SDS011;63320;50.768;6.724;2023-02-26T13:20:36;2.42;;;0.70;;
74793;SDS011;63320;50.768;6.724;2023-02-26T13:23:08;3.30;;;0.90;;
74793;SDS011;63320;50.768;6.724;2023-02-26T13:25:39;2.15;;;0.60;;
74793;SDS011;63320;50.768;6.724;2023-02-26T13:28:10;3.92;;;1.00;;
74793;SDS011;63320;50.768;6.724;2023-02-26T13:30:48;3.92;;;1.13;;
74793;SDS011;63320;50.768;6.724;2023-02-26T13:33:16;2.80;;;1.00;;
74793;SDS011;63320;50.768;6.724;2023-02-26T13:35:43;11.05;;;3.97;;
74793;SDS011;63320;50.768;6.724;2023-02-26T13:38:12;4.63;;;1.30;;
74793;SDS011;63320;50.768;6.724;2023-02-26T13:40:49;4.75;;;1.40;;
74793;SDS011;63320;50.768;6.724;2023-02-26T13:43:26;4.35;;;1.17;;
74793;SDS011;63320;50.768;6.724;2023-02-26T13:48:37;4.22;;;1.10;;
74793;SDS011;63320;50.768;6.724;2023-02-26T13:51:08;3.22;;;1.00;;
74793;SDS011;63320;50.768;6.724;2023-02-26T13:53:47;3.85;;;1.10;;
74793;SDS011;63320;50.768;6.724;2023-02-26T13:56:16;3.58;;;1.00;;
74793;SDS011;63320;50.768;6.724;2023-02-26T13:58:47;4.65;;;1.30;;
74793;SDS011;63320;50.768;6.724;2023-02-26T14:01:17;3.03;;;1.05;;
74793;SDS011;63320;50.768;6.724;2023-02-26T14:03:51;3.13;;;1.00;;
74793;SDS011;63320;50.768;6.724;2023-02-26T14:06:22;2.42;;;0.80;;
74793;SDS011;63320;50.768;6.724;2023-02-26T14:08:52;2.67;;;0.82;;
74793;SDS011;63320;50.768;6.724;2023-02-26T14:11:32;3.15;;;0.82;;
74793;SDS011;63320;50.768;6.724;2023-02-26T14:14:06;2.55;;;0.90;;
74793;SDS011;63320;50.768;6.724;2023-02-26T14:16:38;3.58;;;0.90;;
74793;SDS011;63320;50.768;6.724;2023-02-26T14:19:21;3.67;;;0.88;;
74793;SDS011;63320;50.768;6.724;2023-02-26T14:21:50;4.95;;;0.90;;
74793;SDS011;63320;50.768;6.724;2023-02-26T14:24:18;23.52;;;1.73;;
74793;SDS011;63320;50.768;6.724;2023-02-26T14:26:48;4.05;;;1.50;;
74793;SDS011;63320;50.768;6.724;2023-02-26T14:29:18;6.72;;;1.00;;
74793;SDS011;63320;50.768;6.724;2023-02-26T14:34:15;3.45;;;1.02;;
74793;SDS011;63320;50.768;6.724;2023-02-26T14:36:47;4.13;;;0.90;;
74793;SDS011;63320;50.768;6.724;2023-02-26T14:39:21;4.25;;;1.52;;
74793;SDS011;63320;50.768;6.724;2023-02-26T14:41:49;2.97;;;1.38;;
74793;SDS011;63320;50.768;6.724;2023-02-26T14:44:21;3.88;;;1.50;;
74793;SDS011;63320;50.768;6.724;2023-02-26T14:46:50;4.15;;;1.85;;
74793;SDS011;63320;50.768;6.724;2023-02-26T14:49:17;4.93;;;1.42;;
74793;SDS011;63320;50.768;6.724;2023-02-26T14:51:50;2.95;;;1.00;;
74793;SDS011;63320;50.768;6.724;2023-02-26T14:54:34;3.22;;;0.82;;
74793;SDS011;63320;50.768;6.724;2023-02-26T14:57:13;3.92;;;1.33;;
74793;SDS011;63320;50.768;6.724;2023-02-26T14:59:50;4.03;;;0.93;;
74793;SDS011;63320;50.768;6.724;2023-02-26T15:02:29;3.83;;;1.27;;
74793;SDS011;63320;50.768;6.724;2023-02-26T15:05:11;4.15;;;1.20;;
74793;SDS011;63320;50.768;6.724;2023-02-26T15:07:50;3.45;;;1.10;;
74793;SDS011;63320;50.768;6.724;2023-02-26T15:10:31;5.30;;;2.08;;
74793;SDS011;63320;50.768;6.724;2023-02-26T15:13:12;4.70;;;1.95;;
74793;SDS011;63320;50.768;6.724;2023-02-26T15:15:51;3.53;;;1.10;;
74793;SDS011;63320;50.768;6.724;2023-02-26T15:18:31;4.90;;;1.20;;
74793;SDS011;63320;50.768;6.724;2023-02-26T15:21:09;3.55;;;1.27;;
74793;SDS011;63320;50.768;6.724;2023-02-26T15:23:42;4.18;;;1.10;;